Time;durP1;ratioP1;P1;durP2;ratioP2;P2;SDS_P1;SDS_P2;PMS_P1;PMS_P2;Temp;Humidity;BMP_temperature;BMP_pressure;BME280_temperature;BME280_humidity;BME280_pressure;Samples;Min_cycle;Max_cycle;Signal;HPM_P1;HPM_P2
2023/11/06 00:02:06;;;;;;;0.10;0.10;;;11.00;99.90;;;;;;5069342;28;20188;-78
2023/11/06 00:04:32;;;;;;;0.10;0.10;;;10.90;99.90;;;;;;5069867;28;20216;-79
2023/11/06 00:06:58;;;;;;;0.10;0.10;;;11.00;99.90;;;;;;5068166;28;20652;-78
2023/11/06 00:09:23;;;;;;;0.10;0.10;;;11.00;99.90;;;;;;5070157;28;20239;-78
2023/11/06 00:11:49;;;;;;;0.10;0.10;;;11.00;99.90;;;;;;5068361;28;20213;-79
2023/11/06 00:14:15;;;;;;;0.10;0.10;;;11.00;99.90;;;;;;5067675;28;20205;-79
2023/11/06 00:16:41;;;;;;;0.10;0.10;;;11.00;99.90;;;;;;5068935;28;20672;-78
2023/11/06 00:19:07;;;;;;;0.10;0.10;;;11.10;99.90;;;;;;5066337;28;20277;-78
2023/11/06 00:21:33;;;;;;;0.10;0.10;;;11.10;99.90;;;;;;5068975;28;20680;-78
2023/11/06 00:23:58;;;;;;;0.10;0.10;;;11.10;99.90;;;;;;5068236;28;20208;-78
2023/11/06 00:26:24;;;;;;;0.10;0.10;;;11.10;99.90;;;;;;5068645;28;20189;-79
2023/11/06 00:28:50;;;;;;;0.10;0.10;;;11.20;99.90;;;;;;5067574;28;20230;-78
2023/11/06 00:31:16;;;;;;;0.10;0.10;;;11.20;99.90;;;;;;5068423;28;20213;-79
2023/11/06 00:33:42;;;;;;;0.10;0.10;;;11.20;99.90;;;;;;5068978;28;20200;-79
2023/11/06 00:36:21;;;;;;;0.10;0.10;;;11.20;99.90;;;;;;5066682;28;20203;-78
2023/11/06 00:38:46;;;;;;;0.10;0.10;;;11.30;99.90;;;;;;5068469;28;20318;-78
2023/11/06 00:41:12;;;;;;;0.10;0.10;;;11.30;99.90;;;;;;5068755;28;20276;-78
2023/11/06 00:43:38;;;;;;;0.40;0.40;;;11.30;99.90;;;;;;5067795;28;20208;-79
2023/11/06 00:46:04;;;;;;;0.10;0.10;;;11.30;99.90;;;;;;5068163;28;20276;-79
2023/11/06 00:48:30;;;;;;;0.10;0.10;;;11.30;99.90;;;;;;5068772;28;20322;-78
2023/11/06 00:50:55;;;;;;;0.10;0.10;;;11.20;99.90;;;;;;5065413;28;20212;-79
2023/11/06 00:53:21;;;;;;;0.10;0.10;;;11.30;99.90;;;;;;5070856;28;20688;-79
2023/11/06 00:55:47;;;;;;;0.10;0.10;;;11.30;99.90;;;;;;5073869;28;20180;-79
2023/11/06 00:58:16;;;;;;;0.10;0.10;;;11.30;99.90;;;;;;5073443;28;20181;-79
2023/11/06 01:00:42;;;;;;;0.10;0.10;;;11.30;99.90;;;;;;5072599;28;20204;-78
2023/11/06 01:03:07;;;;;;;0.10;0.10;;;11.30;99.90;;;;;;5071014;28;20680;-78
2023/11/06 01:05:33;;;;;;;0.10;0.10;;;11.30;99.90;;;;;;5070676;28;20193;-78
2023/11/06 01:07:58;;;;;;;0.10;0.10;;;11.30;99.90;;;;;;5071179;28;20750;-79
2023/11/06 01:10:25;;;;;;;0.10;0.10;;;11.30;99.90;;;;;;5071630;28;20197;-79
2023/11/06 01:12:52;;;;;;;0.00;0.00;;;11.30;99.90;;;;;;5067372;28;20247;-77
2023/11/06 01:15:19;;;;;;;0.10;0.10;;;11.30;99.90;;;;;;5070766;28;20189;-78
2023/11/06 01:17:44;;;;;;;0.57;0.57;;;11.30;99.90;;;;;;5072390;28;20680;-78
2023/11/06 01:20:10;;;;;;;0.10;0.10;;;11.30;99.90;;;;;;5070826;28;20203;-78
2023/11/06 01:22:36;;;;;;;0.10;0.10;;;11.30;99.90;;;;;;5070378;28;20181;-78
2023/11/06 01:25:02;;;;;;;0.10;0.10;;;11.30;99.90;;;;;;5072044;28;20235;-79
2023/11/06 01:27:28;;;;;;;0.10;0.10;;;11.30;99.90;;;;;;5072518;28;20194;-78
2023/11/06 01:29:53;;;;;;;0.10;0.10;;;11.30;99.90;;;;;;5071793;28;20739;-79
2023/11/06 01:32:20;;;;;;;0.10;0.10;;;11.30;99.90;;;;;;5067453;28;20205;-79
2023/11/06 01:34:46;;;;;;;0.10;0.10;;;11.30;99.90;;;;;;5072094;28;20177;-79
2023/11/06 01:37:12;;;;;;;0.10;0.10;;;11.40;99.90;;;;;;5070442;28;20275;-78
2023/11/06 01:39:37;;;;;;;0.10;0.10;;;11.40;99.90;;;;;;5071552;28;20277;-79
2023/11/06 01:42:03;;;;;;;0.10;0.10;;;11.40;99.90;;;;;;5071230;28;20196;-79
2023/11/06 01:44:29;;;;;;;0.10;0.10;;;11.40;99.90;;;;;;5071833;28;20214;-78
2023/11/06 01:46:54;;;;;;;0.10;0.10;;;11.40;99.90;;;;;;5070776;28;20185;-78
2023/11/06 01:49:21;;;;;;;0.10;0.10;;;11.40;99.90;;;;;;5065680;28;20185;-78
2023/11/06 01:51:48;;;;;;;0.10;0.10;;;11.40;99.90;;;;;;5069714;28;20213;-78
2023/11/06 01:54:14;;;;;;;0.10;0.10;;;11.40;99.90;;;;;;5067049;28;20209;-78
2023/11/06 01:56:40;;;;;;;0.10;0.10;;;11.40;99.90;;;;;;5068590;28;20525;-78
2023/11/06 01:59:07;;;;;;;0.10;0.10;;;11.40;99.90;;;;;;5070876;28;20181;-79
2023/11/06 02:01:39;;;;;;;0.10;0.10;;;11.40;99.90;;;;;;5071051;28;20533;-78
2023/11/06 02:04:06;;;;;;;0.10;0.10;;;11.40;99.90;;;;;;5068953;28;20201;-78
2023/11/06 02:06:33;;;;;;;0.10;0.10;;;11.40;99.90;;;;;;5068898;28;20192;-78
2023/11/06 02:08:59;;;;;;;0.10;0.10;;;11.40;99.90;;;;;;5069105;28;20200;-78
2023/11/06 02:11:24;;;;;;;0.10;0.10;;;11.40;99.90;;;;;;5068541;28;20255;-78
2023/11/06 02:13:50;;;;;;;0.10;0.10;;;11.40;99.90;;;;;;5071295;28;20204;-79
2023/11/06 02:16:15;;;;;;;0.10;0.10;;;11.50;99.90;;;;;;5068755;28;20238;-78
2023/11/06 02:18:41;;;;;;;0.10;0.10;;;11.50;99.90;;;;;;5068869;28;20278;-78
2023/11/06 02:21:07;;;;;;;0.10;0.10;;;11.40;99.90;;;;;;5069501;28;20184;-78
2023/11/06 02:23:33;;;;;;;0.33;0.33;;;11.40;99.90;;;;;;5065836;28;20744;-78
2023/11/06 02:25:59;;;;;;;0.10;0.10;;;11.40;99.90;;;;;;5070298;28;20279;-78
2023/11/06 02:28:24;;;;;;;0.10;0.10;;;11.40;99.90;;;;;;5070442;28;20196;-78
2023/11/06 02:30:52;;;;;;;0.10;0.10;;;11.40;99.90;;;;;;5069625;28;20215;-78
2023/11/06 02:33:19;;;;;;;0.10;0.10;;;11.40;99.90;;;;;;5068975;28;20287;-78
2023/11/06 02:35:44;;;;;;;0.10;0.10;;;11.40;99.90;;;;;;5066989;28;20652;-78
2023/11/06 02:38:10;;;;;;;0.10;0.10;;;11.40;99.90;;;;;;5065990;28;20196;-78
2023/11/06 02:40:36;;;;;;;0.10;0.10;;;11.40;99.90;;;;;;5065440;28;20192;-78
2023/11/06 02:43:01;;;;;;;0.10;0.10;;;11.30;99.90;;;;;;5068747;28;20204;-78
2023/11/06 02:45:27;;;;;;;0.10;0.10;;;11.30;99.90;;;;;;5070598;28;20189;-79
2023/11/06 02:47:52;;;;;;;0.10;0.10;;;11.30;99.90;;;;;;5071506;28;20216;-78
2023/11/06 02:50:20;;;;;;;0.10;0.10;;;11.30;99.90;;;;;;5068353;28;20193;-79
2023/11/06 02:52:46;;;;;;;0.10;0.10;;;11.30;99.90;;;;;;5067454;28;20197;-78
2023/11/06 02:55:11;;;;;;;0.10;0.10;;;11.20;99.90;;;;;;5069202;28;20196;-79
2023/11/06 02:57:37;;;;;;;0.10;0.10;;;11.20;99.90;;;;;;5071082;28;20199;-78
2023/11/06 03:00:06;;;;;;;0.10;0.10;;;11.20;99.90;;;;;;5068182;28;20195;-78
2023/11/06 03:02:36;;;;;;;0.10;0.10;;;11.20;99.90;;;;;;5069671;28;20969;-78
2023/11/06 03:05:06;;;;;;;0.10;0.10;;;11.20;99.90;;;;;;5068981;28;20213;-78
2023/11/06 03:07:32;;;;;;;0.10;0.10;;;11.20;99.90;;;;;;5069838;28;20755;-78
2023/11/06 03:09:57;;;;;;;0.10;0.10;;;11.20;99.90;;;;;;5071861;28;20188;-79
2023/11/06 03:12:23;;;;;;;0.10;0.10;;;11.10;99.90;;;;;;5071442;28;20219;-79
2023/11/06 03:14:48;;;;;;;0.10;0.10;;;11.20;99.90;;;;;;5071499;28;20176;-79
2023/11/06 03:17:14;;;;;;;0.10;0.10;;;11.10;99.90;;;;;;5067947;28;20208;-79
2023/11/06 03:19:40;;;;;;;0.10;0.10;;;11.20;99.90;;;;;;5064514;28;20194;-78
2023/11/06 03:22:06;;;;;;;0.10;0.10;;;11.10;99.90;;;;;;5065684;28;20674;-78
2023/11/06 03:24:32;;;;;;;0.10;0.10;;;11.10;99.90;;;;;;5068947;28;20562;-78
2023/11/06 03:26:57;;;;;;;0.10;0.10;;;11.10;99.90;;;;;;5066543;28;20235;-78
2023/11/06 03:29:23;;;;;;;0.10;0.10;;;11.00;99.90;;;;;;5067463;28;20181;-78
2023/11/06 03:31:49;;;;;;;0.10;0.10;;;11.00;99.90;;;;;;5070763;28;20234;-78
2023/11/06 03:34:15;;;;;;;0.10;0.10;;;11.10;99.90;;;;;;5069082;28;20300;-78
2023/11/06 03:36:47;;;;;;;0.10;0.10;;;11.10;99.90;;;;;;5059779;28;20198;-78
2023/11/06 03:39:14;;;;;;;0.10;0.10;;;11.00;99.90;;;;;;5069586;28;20512;-78
2023/11/06 03:41:40;;;;;;;0.10;0.10;;;10.90;99.90;;;;;;5067435;28;20193;-78
2023/11/06 03:44:06;;;;;;;0.10;0.10;;;10.90;99.90;;;;;;5070093;28;20227;-78
2023/11/06 03:46:32;;;;;;;0.10;0.10;;;10.80;99.90;;;;;;5067009;28;20188;-78
2023/11/06 03:48:58;;;;;;;0.10;0.10;;;10.80;99.90;;;;;;5069753;28;20177;-78
2023/11/06 03:51:24;;;;;;;0.10;0.10;;;10.80;99.90;;;;;;5067621;28;20773;-78
2023/11/06 03:53:49;;;;;;;0.10;0.10;;;10.80;99.90;;;;;;5067128;28;20215;-78
2023/11/06 03:56:15;;;;;;;0.10;0.10;;;10.80;99.90;;;;;;5070466;28;20265;-78
2023/11/06 03:58:41;;;;;;;0.10;0.10;;;10.80;99.90;;;;;;5066034;28;20181;-78
2023/11/06 04:01:06;;;;;;;0.10;0.10;;;10.80;99.90;;;;;;5069796;28;20183;-78
2023/11/06 04:03:32;;;;;;;0.10;0.10;;;10.80;99.90;;;;;;5068352;28;20204;-78
2023/11/06 04:05:59;;;;;;;0.10;0.10;;;10.80;99.90;;;;;;5067268;28;20188;-78
2023/11/06 04:08:24;;;;;;;0.10;0.10;;;10.80;99.90;;;;;;5066473;28;20205;-78
2023/11/06 04:10:50;;;;;;;0.10;0.10;;;10.80;99.90;;;;;;5069804;28;20307;-78
2023/11/06 04:13:15;;;;;;;0.10;0.10;;;10.80;99.90;;;;;;5068651;28;20211;-78
2023/11/06 04:15:41;;;;;;;0.10;0.10;;;10.90;99.90;;;;;;5069473;28;20196;-78
2023/11/06 04:18:06;;;;;;;0.10;0.10;;;10.90;99.90;;;;;;5069492;28;20548;-79
2023/11/06 04:20:32;;;;;;;0.10;0.10;;;10.90;99.90;;;;;;5069056;28;20263;-78
2023/11/06 04:22:57;;;;;;;0.10;0.10;;;10.80;99.90;;;;;;5062201;28;20208;-78
2023/11/06 04:25:23;;;;;;;0.10;0.10;;;10.90;99.90;;;;;;5069593;28;20177;-78
2023/11/06 04:27:49;;;;;;;0.10;0.10;;;10.80;99.90;;;;;;5073702;28;20185;-78
2023/11/06 04:30:15;;;;;;;0.10;0.10;;;10.80;99.90;;;;;;5075241;28;20185;-79
2023/11/06 04:32:40;;;;;;;0.10;0.10;;;10.70;99.90;;;;;;5069432;28;20227;-78
2023/11/06 04:35:06;;;;;;;0.10;0.10;;;10.60;99.90;;;;;;5074205;28;20174;-78
2023/11/06 04:37:34;;;;;;;0.10;0.10;;;10.50;99.90;;;;;;5072768;28;20189;-78
2023/11/06 04:40:00;;;;;;;0.10;0.10;;;10.50;99.90;;;;;;5074194;28;20189;-78
2023/11/06 04:42:26;;;;;;;0.10;0.10;;;10.40;99.90;;;;;;5073518;28;20276;-78
2023/11/06 04:44:51;;;;;;;0.10;0.10;;;10.40;99.90;;;;;;5069114;28;20287;-78
2023/11/06 04:47:17;;;;;;;0.10;0.10;;;10.40;99.90;;;;;;5069638;28;20581;-78
2023/11/06 04:49:43;;;;;;;0.10;0.10;;;10.40;99.90;;;;;;5068911;28;20177;-79
2023/11/06 04:52:08;;;;;;;0.10;0.10;;;10.30;99.90;;;;;;5068450;28;20829;-79
2023/11/06 04:54:34;;;;;;;0.10;0.10;;;10.30;99.90;;;;;;5074467;28;20247;-78
2023/11/06 04:56:59;;;;;;;0.10;0.10;;;10.30;99.90;;;;;;5069972;28;20652;-79
2023/11/06 04:59:25;;;;;;;0.10;0.10;;;10.30;99.90;;;;;;5071268;28;20184;-78
2023/11/06 05:01:50;;;;;;;0.10;0.10;;;10.20;99.90;;;;;;5072249;28;20287;-78
2023/11/06 05:04:16;;;;;;;0.10;0.10;;;10.20;99.90;;;;;;5073608;28;20228;-79
2023/11/06 05:06:42;;;;;;;0.10;0.10;;;10.20;99.90;;;;;;5068718;28;20185;-78
2023/11/06 05:09:10;;;;;;;0.00;0.00;;;10.20;99.90;;;;;;5071999;28;20196;-78
2023/11/06 05:11:36;;;;;;;0.10;0.10;;;10.20;99.90;;;;;;5071317;28;20553;-78
2023/11/06 05:14:01;;;;;;;0.10;0.10;;;10.30;99.90;;;;;;5067833;28;20207;-78
2023/11/06 05:16:28;;;;;;;0.10;0.10;;;10.20;99.90;;;;;;5072763;28;20825;-78
2023/11/06 05:18:54;;;;;;;0.10;0.10;;;10.30;99.90;;;;;;5070097;28;20181;-78
2023/11/06 05:21:25;;;;;;;0.10;0.10;;;10.20;99.90;;;;;;5072275;28;20192;-78
2023/11/06 05:23:50;;;;;;;0.10;0.10;;;10.30;99.90;;;;;;5075175;28;20216;-78
2023/11/06 05:26:16;;;;;;;0.10;0.10;;;10.30;99.90;;;;;;5072838;28;20260;-79
2023/11/06 05:28:43;;;;;;;0.10;0.10;;;10.30;99.90;;;;;;5073166;28;20238;-78
2023/11/06 05:31:09;;;;;;;0.10;0.10;;;10.30;99.90;;;;;;5070620;28;20238;-78
2023/11/06 05:33:35;;;;;;;0.10;0.10;;;10.20;99.90;;;;;;5070132;28;20628;-79
2023/11/06 05:36:01;;;;;;;0.10;0.10;;;10.20;99.90;;;;;;5067502;28;20185;-78
2023/11/06 05:38:27;;;;;;;0.10;0.10;;;10.20;99.90;;;;;;5071435;28;20682;-78
2023/11/06 05:40:52;;;;;;;0.10;0.10;;;10.20;99.90;;;;;;5067879;28;20177;-78
2023/11/06 05:43:18;;;;;;;0.10;0.10;;;10.20;99.90;;;;;;5070107;28;20197;-79
2023/11/06 05:45:43;;;;;;;0.10;0.10;;;10.20;99.90;;;;;;5068573;28;20177;-78
2023/11/06 05:48:09;;;;;;;0.10;0.10;;;10.20;99.90;;;;;;5065925;28;20184;-78
2023/11/06 05:50:36;;;;;;;0.10;0.10;;;10.20;99.90;;;;;;5071190;28;20219;-78
2023/11/06 05:53:01;;;;;;;0.10;0.10;;;10.20;99.90;;;;;;5063405;28;20203;-78
2023/11/06 05:55:27;;;;;;;0.10;0.10;;;10.20;99.90;;;;;;5071028;28;20554;-78
2023/11/06 05:57:52;;;;;;;0.10;0.10;;;10.20;99.90;;;;;;5072646;28;20190;-79
2023/11/06 06:00:18;;;;;;;0.10;0.10;;;10.20;99.90;;;;;;5071327;28;20192;-79
2023/11/06 06:02:44;;;;;;;0.10;0.10;;;10.30;99.90;;;;;;5067746;28;20616;-78
2023/11/06 06:05:11;;;;;;;0.10;0.10;;;10.30;99.90;;;;;;5075844;28;20197;-77
2023/11/06 06:07:37;;;;;;;0.10;0.10;;;10.30;99.90;;;;;;5081382;28;20211;-78
2023/11/06 06:10:04;;;;;;;0.10;0.10;;;10.30;99.90;;;;;;5080555;28;20187;-78
2023/11/06 06:12:30;;;;;;;0.10;0.10;;;10.30;99.90;;;;;;5077808;28;20263;-78
2023/11/06 06:14:56;;;;;;;0.10;0.10;;;10.30;99.90;;;;;;5079095;28;20185;-79
2023/11/06 06:17:21;;;;;;;0.10;0.10;;;10.30;99.90;;;;;;5084202;28;20185;-78
2023/11/06 06:19:47;;;;;;;0.10;0.10;;;10.30;99.90;;;;;;5076598;28;20173;-78
2023/11/06 06:22:13;;;;;;;0.00;0.00;;;10.30;99.90;;;;;;5083145;28;20248;-77
2023/11/06 06:24:39;;;;;;;0.07;0.07;;;10.30;99.90;;;;;;5075337;28;20632;-78
2023/11/06 06:27:05;;;;;;;0.10;0.10;;;10.40;99.90;;;;;;5074073;28;20189;-79
2023/11/06 06:29:31;;;;;;;0.10;0.10;;;10.40;99.90;;;;;;5071913;28;20203;-78
2023/11/06 06:31:56;;;;;;;0.10;0.10;;;10.50;99.90;;;;;;5069915;28;20587;-78
2023/11/06 06:34:23;;;;;;;0.10;0.10;;;10.60;99.90;;;;;;5067835;28;20254;-78
2023/11/06 06:36:49;;;;;;;0.10;0.10;;;10.60;99.90;;;;;;5066780;28;20250;-78
2023/11/06 06:39:15;;;;;;;0.10;0.10;;;10.70;99.90;;;;;;5069875;28;20673;-79
2023/11/06 06:41:41;;;;;;;0.10;0.10;;;10.70;99.90;;;;;;5069030;28;20572;-78
2023/11/06 06:44:07;;;;;;;0.10;0.10;;;10.70;99.90;;;;;;5068807;28;20220;-79
2023/11/06 06:46:32;;;;;;;0.10;0.10;;;10.70;99.90;;;;;;5072216;28;20181;-79
2023/11/06 06:48:58;;;;;;;0.10;0.10;;;10.70;99.90;;;;;;5068058;28;20183;-79
2023/11/06 06:51:23;;;;;;;0.10;0.10;;;10.70;99.90;;;;;;5068147;28;20300;-80
2023/11/06 06:53:51;;;;;;;0.10;0.10;;;10.70;99.90;;;;;;5066171;28;20615;-79
2023/11/06 06:56:17;;;;;;;0.10;0.10;;;10.80;99.90;;;;;;5069048;28;20277;-79
2023/11/06 06:58:42;;;;;;;0.10;0.10;;;10.80;99.90;;;;;;5069538;28;20734;-79
2023/11/06 07:01:09;;;;;;;0.10;0.10;;;10.80;99.90;;;;;;5071031;28;20181;-79
2023/11/06 07:03:36;;;;;;;0.10;0.10;;;10.90;99.90;;;;;;5068372;28;20208;-79
2023/11/06 07:06:04;;;;;;;0.10;0.10;;;10.90;99.90;;;;;;5065880;28;20674;-79
2023/11/06 07:08:30;;;;;;;0.10;0.10;;;10.80;99.90;;;;;;5067222;28;20298;-80
2023/11/06 07:10:55;;;;;;;0.10;0.10;;;10.70;99.90;;;;;;5069028;28;20289;-79
2023/11/06 07:13:21;;;;;;;0.10;0.10;;;10.70;99.90;;;;;;5066810;28;20288;-79
2023/11/06 07:15:46;;;;;;;0.10;0.10;;;10.80;99.90;;;;;;5067048;28;20205;-80
2023/11/06 07:18:13;;;;;;;0.10;0.10;;;10.80;99.90;;;;;;5067291;28;20239;-79
2023/11/06 07:20:38;;;;;;;0.10;0.10;;;10.90;99.90;;;;;;5062372;28;20220;-80
2023/11/06 07:23:04;;;;;;;0.10;0.10;;;11.00;99.90;;;;;;5066012;28;20228;-80
2023/11/06 07:25:29;;;;;;;0.10;0.10;;;11.00;99.90;;;;;;5066658;28;20173;-79
2023/11/06 07:27:56;;;;;;;0.10;0.10;;;11.20;99.90;;;;;;5066109;28;20261;-80
2023/11/06 07:30:22;;;;;;;0.10;0.10;;;11.20;99.90;;;;;;5063292;28;20189;-80
2023/11/06 07:32:48;;;;;;;0.10;0.10;;;11.20;99.90;;;;;;5066801;28;20226;-80
2023/11/06 07:35:14;;;;;;;0.10;0.10;;;11.30;99.90;;;;;;5066914;28;20177;-80
2023/11/06 07:37:41;;;;;;;0.10;0.10;;;11.40;99.90;;;;;;5064312;28;20281;-80
2023/11/06 07:40:08;;;;;;;0.10;0.10;;;11.40;99.90;;;;;;5061488;28;20181;-80
2023/11/06 07:42:34;;;;;;;0.10;0.10;;;11.50;99.90;;;;;;5063615;28;20180;-80
2023/11/06 07:44:59;;;;;;;0.10;0.10;;;11.50;99.90;;;;;;5063232;28;20195;-80
2023/11/06 07:47:25;;;;;;;0.10;0.10;;;11.50;99.90;;;;;;5061938;28;20200;-80
2023/11/06 07:49:50;;;;;;;0.10;0.10;;;11.50;99.90;;;;;;5064090;28;20192;-80
2023/11/06 07:52:17;;;;;;;0.10;0.10;;;11.50;99.90;;;;;;5065628;28;20204;-80
2023/11/06 07:54:43;;;;;;;0.10;0.10;;;11.50;99.90;;;;;;5064043;28;20206;-81
2023/11/06 07:57:09;;;;;;;0.10;0.10;;;11.50;99.90;;;;;;5068110;28;20230;-81
2023/11/06 07:59:42;;;;;;;0.10;0.10;;;11.50;99.90;;;;;;5061019;28;20186;-80
2023/11/06 08:02:10;;;;;;;0.10;0.10;;;11.50;99.90;;;;;;5065489;28;20181;-81
2023/11/06 08:04:39;;;;;;;0.10;0.10;;;11.50;99.90;;;;;;5063094;28;20550;-80
2023/11/06 08:07:06;;;;;;;0.10;0.10;;;11.60;99.90;;;;;;5066228;28;20185;-80
2023/11/06 08:09:31;;;;;;;0.10;0.10;;;11.70;99.90;;;;;;5066589;28;20218;-81
2023/11/06 08:11:57;;;;;;;0.10;0.10;;;11.70;99.90;;;;;;5009393;28;1606439;-80
2023/11/06 08:14:22;;;;;;;0.10;0.10;;;11.70;99.90;;;;;;5056960;28;20214;-79
2023/11/06 08:16:48;;;;;;;0.10;0.10;;;11.70;99.90;;;;;;5059293;28;20189;-80
2023/11/06 08:19:14;;;;;;;0.10;0.10;;;11.70;99.90;;;;;;5063828;28;20196;-80
2023/11/06 08:21:39;;;;;;;0.10;0.10;;;11.70;99.90;;;;;;5065632;28;20704;-79
2023/11/06 08:24:05;;;;;;;0.10;0.10;;;11.70;99.90;;;;;;5060166;28;20262;-80
2023/11/06 08:26:31;;;;;;;0.10;0.10;;;11.70;99.90;;;;;;5065857;28;20203;-80
2023/11/06 08:28:56;;;;;;;0.10;0.10;;;11.80;99.90;;;;;;5066028;28;20264;-80
2023/11/06 08:31:22;;;;;;;0.10;0.10;;;11.90;99.90;;;;;;5067417;28;20205;-79
2023/11/06 08:33:47;;;;;;;0.10;0.10;;;12.00;99.90;;;;;;5060337;28;21164;-79
2023/11/06 08:36:13;;;;;;;0.10;0.10;;;12.30;99.90;;;;;;5062275;28;20191;-79
2023/11/06 08:38:39;;;;;;;0.10;0.10;;;12.30;99.90;;;;;;5059944;28;20549;-80
2023/11/06 08:41:08;;;;;;;0.10;0.10;;;12.40;99.90;;;;;;5067702;28;20217;-80
2023/11/06 08:43:38;;;;;;;0.10;0.10;;;12.40;99.90;;;;;;5059301;28;20657;-79
2023/11/06 08:46:04;;;;;;;0.10;0.10;;;12.40;99.90;;;;;;5066332;28;20194;-79
2023/11/06 08:48:30;;;;;;;0.10;0.10;;;12.50;99.90;;;;;;5059923;28;20234;-79
2023/11/06 08:50:56;;;;;;;0.10;0.10;;;12.50;99.90;;;;;;5061274;28;20212;-80
2023/11/06 08:53:22;;;;;;;0.10;0.10;;;12.50;99.90;;;;;;5063280;28;20209;-80
2023/11/06 08:55:48;;;;;;;0.10;0.10;;;12.50;99.90;;;;;;5057629;28;20554;-79
2023/11/06 08:58:16;;;;;;;0.10;0.10;;;12.50;99.90;;;;;;5066027;28;20186;-80
2023/11/06 09:00:47;;;;;;;0.10;0.10;;;12.50;99.90;;;;;;5066651;28;20186;-80
2023/11/06 09:03:16;;;;;;;0.10;0.10;;;12.60;99.90;;;;;;5067580;28;20253;-80
2023/11/06 09:05:41;;;;;;;0.10;0.10;;;12.60;99.90;;;;;;5066943;28;20176;-79
2023/11/06 09:08:08;;;;;;;0.10;0.10;;;12.80;99.90;;;;;;5060621;28;20731;-79
2023/11/06 09:10:34;;;;;;;0.10;0.10;;;12.90;99.90;;;;;;5058242;28;20193;-80
2023/11/06 09:13:00;;;;;;;0.10;0.10;;;13.00;99.90;;;;;;5067980;28;20570;-80
2023/11/06 09:15:26;;;;;;;0.10;0.10;;;13.10;99.90;;;;;;5064854;28;20189;-80
2023/11/06 09:17:53;;;;;;;0.10;0.10;;;13.20;99.90;;;;;;5064590;28;20170;-80
2023/11/06 09:20:19;;;;;;;0.10;0.10;;;13.20;99.90;;;;;;5068731;28;20192;-80
2023/11/06 09:22:46;;;;;;;0.10;0.10;;;13.30;99.90;;;;;;5062362;28;20205;-79
2023/11/06 09:25:11;;;;;;;0.10;0.10;;;13.40;99.90;;;;;;5071309;28;20191;-80
2023/11/06 09:27:38;;;;;;;0.10;0.10;;;13.50;99.90;;;;;;5069671;28;20189;-81
2023/11/06 09:30:07;;;;;;;0.10;0.10;;;13.50;99.90;;;;;;5061676;28;20243;-80
2023/11/06 09:32:32;;;;;;;0.10;0.10;;;13.50;99.90;;;;;;5069335;28;20212;-80
2023/11/06 09:35:00;;;;;;;0.10;0.10;;;13.50;99.90;;;;;;5063508;28;20185;-80
2023/11/06 09:37:26;;;;;;;0.10;0.10;;;13.60;99.90;;;;;;5060187;28;20186;-80
2023/11/06 09:39:51;;;;;;;0.10;0.10;;;13.80;99.90;;;;;;5063777;28;20191;-80
2023/11/06 09:42:17;;;;;;;0.10;0.10;;;14.00;99.90;;;;;;5069489;28;20219;-80
2023/11/06 09:44:46;;;;;;;0.10;0.10;;;14.30;99.90;;;;;;5061560;28;20260;-80
2023/11/06 09:47:12;;;;;;;0.10;0.10;;;14.40;99.90;;;;;;5068845;28;20187;-79
2023/11/06 09:49:43;;;;;;;0.10;0.10;;;14.80;99.90;;;;;;5059971;28;20199;-80
2023/11/06 09:52:11;;;;;;;0.10;0.10;;;15.00;99.90;;;;;;5068949;28;20198;-80
2023/11/06 09:54:38;;;;;;;0.10;0.10;;;14.90;99.90;;;;;;5066516;28;20279;-79
2023/11/06 09:57:05;;;;;;;0.10;0.10;;;14.80;99.90;;;;;;5059845;28;20206;-79
2023/11/06 09:59:31;;;;;;;0.10;0.10;;;14.40;99.90;;;;;;5069162;28;20185;-79
2023/11/06 10:01:57;;;;;;;0.10;0.10;;;14.40;99.90;;;;;;5067592;28;20187;-79
2023/11/06 10:04:22;;;;;;;0.10;0.10;;;14.30;99.90;;;;;;5063437;28;20208;-79
2023/11/06 10:06:50;;;;;;;0.10;0.10;;;14.30;99.90;;;;;;5066099;28;20196;-79
2023/11/06 10:09:22;;;;;;;0.10;0.10;;;14.40;99.90;;;;;;5065198;28;20769;-79
2023/11/06 10:11:48;;;;;;;0.10;0.10;;;14.40;99.90;;;;;;5064516;28;20208;-79
2023/11/06 10:14:14;;;;;;;0.10;0.10;;;14.20;99.90;;;;;;5058627;28;20255;-79
2023/11/06 10:16:39;;;;;;;0.10;0.10;;;14.00;99.90;;;;;;5059953;28;20188;-79
2023/11/06 10:19:13;;;;;;;0.10;0.10;;;14.00;99.90;;;;;;5066124;28;20196;-80
2023/11/06 10:21:42;;;;;;;0.10;0.10;;;14.20;99.90;;;;;;5068374;28;20276;-79
2023/11/06 10:24:11;;;;;;;0.10;0.10;;;14.20;99.90;;;;;;5065321;28;20208;-79
2023/11/06 10:26:38;;;;;;;0.10;0.10;;;14.20;99.90;;;;;;5068314;28;20241;-79
2023/11/06 10:29:14;;;;;;;0.10;0.10;;;14.20;99.90;;;;;;5069602;28;20627;-79
2023/11/06 10:31:44;;;;;;;0.10;0.10;;;14.30;99.90;;;;;;5084068;28;20721;-79
2023/11/06 10:34:31;;;;;;;0.10;0.10;;;14.10;99.90;;;;;;5067334;28;20208;-79
2023/11/06 10:37:04;;;;;;;0.10;0.10;;;14.00;99.90;;;;;;5065543;28;20295;-79
2023/11/06 10:39:30;;;;;;;0.10;0.10;;;13.90;99.90;;;;;;5068247;28;20646;-79
2023/11/06 10:42:05;;;;;;;0.10;0.10;;;14.10;99.90;;;;;;5066007;28;20198;-79
2023/11/06 10:44:36;;;;;;;0.10;0.10;;;14.40;99.90;;;;;;5060781;28;20223;-79
2023/11/06 10:47:08;;;;;;;0.10;0.10;;;14.80;99.90;;;;;;5064742;28;20362;-80
2023/11/06 10:49:50;;;;;;;0.10;0.10;;;15.10;99.90;;;;;;5067129;28;20188;-81
2023/11/06 10:52:18;;;;;;;0.10;0.10;;;15.30;99.90;;;;;;5069871;28;20330;-79
2023/11/06 10:54:47;;;;;;;0.10;0.10;;;15.10;99.90;;;;;;5069199;28;20233;-79
2023/11/06 10:57:17;;;;;;;0.10;0.10;;;15.00;99.90;;;;;;5069695;28;20184;-79
2023/11/06 10:59:43;;;;;;;0.10;0.10;;;14.90;99.90;;;;;;5060795;28;20215;-79
2023/11/06 11:02:36;;;;;;;0.10;0.10;;;15.10;99.90;;;;;;5061439;28;20228;-80
2023/11/06 11:05:03;;;;;;;0.10;0.10;;;15.20;99.90;;;;;;5067542;28;20219;-80
2023/11/06 11:07:30;;;;;;;0.10;0.10;;;14.90;99.90;;;;;;5067737;28;20262;-80
2023/11/06 11:09:59;;;;;;;0.10;0.10;;;14.80;99.90;;;;;;5068540;28;20194;-79
2023/11/06 11:12:26;;;;;;;0.10;0.10;;;15.00;99.90;;;;;;5068218;28;20224;-80
2023/11/06 11:14:51;;;;;;;0.10;0.10;;;15.30;99.90;;;;;;5068318;28;20235;-80
2023/11/06 11:17:17;;;;;;;0.10;0.10;;;15.60;99.90;;;;;;5066991;28;20212;-80
2023/11/06 11:19:42;;;;;;;0.10;0.10;;;15.50;99.90;;;;;;5068044;28;20188;-79
2023/11/06 11:22:12;;;;;;;0.10;0.10;;;15.30;99.90;;;;;;5067553;28;20656;-80
2023/11/06 11:24:44;;;;;;;0.10;0.10;;;15.40;99.90;;;;;;5067323;28;20284;-80
2023/11/06 11:27:18;;;;;;;0.10;0.10;;;15.30;99.90;;;;;;5068570;28;20198;-80
2023/11/06 11:29:58;;;;;;;0.10;0.10;;;15.30;99.90;;;;;;5068454;28;20666;-80
2023/11/06 11:32:30;;;;;;;0.10;0.10;;;15.40;99.90;;;;;;5060645;28;20216;-80
2023/11/06 11:35:19;;;;;;;0.10;0.10;;;15.40;99.90;;;;;;5062698;28;20696;-80
2023/11/06 11:37:55;;;;;;;0.10;0.10;;;14.90;99.90;;;;;;5066545;28;20241;-80
2023/11/06 11:40:20;;;;;;;0.10;0.10;;;14.70;99.90;;;;;;5067466;28;20275;-80
2023/11/06 11:42:46;;;;;;;0.10;0.10;;;14.80;99.90;;;;;;5063359;28;20303;-79
2023/11/06 11:45:32;;;;;;;0.10;0.10;;;14.60;99.90;;;;;;5068621;28;20192;-79
2023/11/06 11:47:58;;;;;;;0.10;0.10;;;14.60;99.90;;;;;;5066540;28;20575;-79
2023/11/06 11:50:44;;;;;;;0.10;0.10;;;14.50;99.90;;;;;;5068980;28;20185;-79
2023/11/06 11:53:33;;;;;;;0.10;0.10;;;14.70;99.90;;;;;;5066599;28;20701;-79
2023/11/06 11:55:58;;;;;;;0.10;0.10;;;15.00;99.90;;;;;;5066578;28;20208;-79
2023/11/06 11:58:24;;;;;;;0.10;0.10;;;15.40;99.90;;;;;;5068611;28;20226;-80
2023/11/06 12:00:54;;;;;;;0.10;0.10;;;15.90;99.90;;;;;;5069144;28;20229;-79
2023/11/06 12:03:23;;;;;;;0.10;0.10;;;16.10;99.90;;;;;;5068394;28;20282;-79
2023/11/06 12:05:56;;;;;;;0.10;0.10;;;16.30;99.90;;;;;;5068759;28;20658;-79
2023/11/06 12:08:25;;;;;;;0.10;0.10;;;16.40;99.90;;;;;;5069301;28;20184;-79
2023/11/06 12:10:52;;;;;;;0.10;0.10;;;16.50;99.90;;;;;;5067173;28;20201;-79
2023/11/06 12:13:23;;;;;;;0.10;0.10;;;16.50;99.90;;;;;;5068206;28;20208;-79
2023/11/06 12:15:50;;;;;;;0.10;0.10;;;16.30;99.90;;;;;;5066972;28;20181;-79
2023/11/06 12:18:16;;;;;;;0.10;0.10;;;16.60;99.90;;;;;;5068540;28;20267;-79
2023/11/06 12:20:44;;;;;;;0.10;0.10;;;16.30;99.90;;;;;;5068808;28;20181;-79
2023/11/06 12:23:10;;;;;;;0.10;0.10;;;16.30;99.90;;;;;;5058096;28;20209;-79
2023/11/06 12:25:38;;;;;;;0.10;0.10;;;16.10;99.90;;;;;;5068101;28;20550;-79
2023/11/06 12:28:10;;;;;;;0.10;0.10;;;16.00;99.90;;;;;;5068808;28;20177;-79
2023/11/06 12:30:37;;;;;;;0.10;0.10;;;15.70;99.90;;;;;;5060449;28;20181;-79
2023/11/06 12:33:20;;;;;;;0.10;0.10;;;15.50;99.90;;;;;;5067169;28;20580;-79
2023/11/06 12:35:47;;;;;;;0.10;0.10;;;15.40;99.90;;;;;;5068023;28;20189;-80
2023/11/06 12:38:13;;;;;;;0.03;0.03;;;15.40;99.90;;;;;;5058089;28;20189;-79
2023/11/06 12:40:44;;;;;;;0.10;0.10;;;15.30;99.90;;;;;;5067077;28;20241;-79
2023/11/06 12:43:13;;;;;;;0.10;0.10;;;15.00;99.90;;;;;;5058048;28;20326;-79
2023/11/06 12:45:39;;;;;;;0.10;0.10;;;14.80;99.90;;;;;;5060653;28;20212;-79
2023/11/06 12:48:21;;;;;;;0.10;0.10;;;14.60;99.90;;;;;;5067232;28;20680;-79